sensor_id;sensor_type;location;lat;lon;timestamp;pressure;altitude;pressure_sealevel;temperature;humidity
11085;BME280;5596;46.826;8.650;2023-03-16T00:00:31;96492.22;;;2.88;96.82
11085;BME280;5596;46.826;8.650;2023-03-16T00:02:58;96496.00;;;2.93;96.70
11085;BME280;5596;46.826;8.650;2023-03-16T00:05:25;96490.00;;;2.91;95.09
11085;BME280;5596;46.826;8.650;2023-03-16T00:07:54;96490.84;;;2.92;94.65
11085;BME280;5596;46.826;8.650;2023-03-16T00:10:21;96487.91;;;2.87;94.39
11085;BME280;5596;46.826;8.650;2023-03-16T00:12:52;96493.13;;;2.80;93.93
11085;BME280;5596;46.826;8.650;2023-03-16T00:15:19;96477.19;;;2.72;94.59
11085;BME280;5596;46.826;8.650;2023-03-16T00:17:47;96480.38;;;2.67;94.86
11085;BME280;5596;46.826;8.650;2023-03-16T00:20:14;96475.88;;;2.68;95.20
11085;BME280;5596;46.826;8.650;2023-03-16T00:22:41;96469.81;;;2.74;95.10
11085;BME280;5596;46.826;8.650;2023-03-16T00:25:08;96472.47;;;2.74;94.75
11085;BME280;5596;46.826;8.650;2023-03-16T00:27:35;96471.31;;;2.77;94.58
11085;BME280;5596;46.826;8.650;2023-03-16T00:30:03;96473.13;;;2.76;94.80
11085;BME280;5596;46.826;8.650;2023-03-16T00:32:31;96475.53;;;2.71;93.83
11085;BME280;5596;46.826;8.650;2023-03-16T00:34:58;96466.56;;;2.64;93.21
11085;BME280;5596;46.826;8.650;2023-03-16T00:37:26;96465.38;;;2.66;93.02
11085;BME280;5596;46.826;8.650;2023-03-16T00:39:53;96463.19;;;2.70;93.00
11085;BME280;5596;46.826;8.650;2023-03-16T00:42:21;96459.53;;;2.71;92.45
11085;BME280;5596;46.826;8.650;2023-03-16T00:44:52;96460.63;;;2.77;90.28
11085;BME280;5596;46.826;8.650;2023-03-16T00:47:23;96456.78;;;2.79;89.21
11085;BME280;5596;46.826;8.650;2023-03-16T00:49:50;96453.28;;;2.79;88.91
11085;BME280;5596;46.826;8.650;2023-03-16T00:52:17;96457.13;;;2.76;89.07
11085;BME280;5596;46.826;8.650;2023-03-16T00:54:45;96457.97;;;2.77;90.17
11085;BME280;5596;46.826;8.650;2023-03-16T00:57:13;96458.81;;;2.77;89.96
11085;BME280;5596;46.826;8.650;2023-03-16T00:59:41;96456.78;;;2.79;90.30
11085;BME280;5596;46.826;8.650;2023-03-16T01:02:08;96457.63;;;2.80;89.63
11085;BME280;5596;46.826;8.650;2023-03-16T01:04:36;96452.75;;;2.83;89.23
11085;BME280;5596;46.826;8.650;2023-03-16T01:07:04;96447.41;;;2.83;90.58
11085;BME280;5596;46.826;8.650;2023-03-16T01:09:32;96452.75;;;2.83;91.31
11085;BME280;5596;46.826;8.650;2023-03-16T01:12:01;96443.75;;;2.84;92.57
11085;BME280;5596;46.826;8.650;2023-03-16T01:14:28;96444.09;;;2.81;93.50
11085;BME280;5596;46.826;8.650;2023-03-16T01:16:55;96438.75;;;2.81;93.80
11085;BME280;5596;46.826;8.650;2023-03-16T01:19:22;96441.41;;;2.81;94.16
11085;BME280;5596;46.826;8.650;2023-03-16T01:21:50;96434.44;;;2.80;94.31
11085;BME280;5596;46.826;8.650;2023-03-16T01:24:18;96429.47;;;2.77;95.46
11085;BME280;5596;46.826;8.650;2023-03-16T01:26:44;96431.53;;;2.67;96.74
11085;BME280;5596;46.826;8.650;2023-03-16T01:29:11;96430.03;;;2.50;96.59
11085;BME280;5596;46.826;8.650;2023-03-16T01:31:39;96420.75;;;2.46;96.49
11085;BME280;5596;46.826;8.650;2023-03-16T01:34:06;96422.56;;;2.45;95.63
11085;BME280;5596;46.826;8.650;2023-03-16T01:36:37;96423.41;;;2.46;93.84
11085;BME280;5596;46.826;8.650;2023-03-16T01:39:06;96423.84;;;2.49;93.12
11085;BME280;5596;46.826;8.650;2023-03-16T01:41:37;96420.69;;;2.54;92.81
11085;BME280;5596;46.826;8.650;2023-03-16T01:44:06;96420.69;;;2.54;92.70
11085;BME280;5596;46.826;8.650;2023-03-16T01:46:33;96418.63;;;2.56;92.19
11085;BME280;5596;46.826;8.650;2023-03-16T01:49:01;96418.63;;;2.56;93.65
11085;BME280;5596;46.826;8.650;2023-03-16T01:51:31;96413.69;;;2.53;93.41
11085;BME280;5596;46.826;8.650;2023-03-16T01:54:01;96419.28;;;2.58;93.41
11085;BME280;5596;46.826;8.650;2023-03-16T01:56:32;96418.28;;;2.59;93.95
11085;BME280;5596;46.826;8.650;2023-03-16T01:59:00;96415.44;;;2.60;94.49
11085;BME280;5596;46.826;8.650;2023-03-16T02:01:28;96413.97;;;2.58;95.17
11085;BME280;5596;46.826;8.650;2023-03-16T02:03:59;96418.00;;;2.54;94.98
11085;BME280;5596;46.826;8.650;2023-03-16T02:06:28;96413.38;;;2.48;95.63
11085;BME280;5596;46.826;8.650;2023-03-16T02:08:56;96407.94;;;2.41;95.86
11085;BME280;5596;46.826;8.650;2023-03-16T02:11:24;96403.97;;;2.37;96.27
11085;BME280;5596;46.826;8.650;2023-03-16T02:14:03;96405.81;;;2.37;96.41
11085;BME280;5596;46.826;8.650;2023-03-16T02:16:31;96401.09;;;2.39;97.26
11085;BME280;5596;46.826;8.650;2023-03-16T02:18:58;96402.78;;;2.40;97.65
11085;BME280;5596;46.826;8.650;2023-03-16T02:21:27;96400.31;;;2.38;97.68
11085;BME280;5596;46.826;8.650;2023-03-16T02:23:58;96399.66;;;2.36;97.24
11085;BME280;5596;46.826;8.650;2023-03-16T02:26:28;96400.81;;;2.34;97.04
11085;BME280;5596;46.826;8.650;2023-03-16T02:29:05;96398.50;;;2.31;97.25
11085;BME280;5596;46.826;8.650;2023-03-16T02:31:38;96399.72;;;2.28;98.70
11085;BME280;5596;46.826;8.650;2023-03-16T02:34:05;96397.56;;;2.23;98.66
11085;BME280;5596;46.826;8.650;2023-03-16T02:36:32;96398.78;;;2.21;99.96
11085;BME280;5596;46.826;8.650;2023-03-16T02:39:00;96396.91;;;2.21;99.94
11085;BME280;5596;46.826;8.650;2023-03-16T02:41:27;96402.94;;;2.15;100.00
11085;BME280;5596;46.826;8.650;2023-03-16T02:43:58;96407.00;;;2.11;100.00
11085;BME280;5596;46.826;8.650;2023-03-16T02:46:30;96400.66;;;2.12;100.00
11085;BME280;5596;46.826;8.650;2023-03-16T02:49:02;96402.16;;;2.07;100.00
11085;BME280;5596;46.826;8.650;2023-03-16T02:51:31;96407.03;;;2.03;100.00
11085;BME280;5596;46.826;8.650;2023-03-16T02:53:58;96407.03;;;2.03;100.00
11085;BME280;5596;46.826;8.650;2023-03-16T02:56:26;96407.72;;;1.97;100.00
11085;BME280;5596;46.826;8.650;2023-03-16T02:58:54;96408.81;;;1.80;100.00
11085;BME280;5596;46.826;8.650;2023-03-16T03:01:23;96406.69;;;1.75;100.00
11085;BME280;5596;46.826;8.650;2023-03-16T03:03:49;96406.56;;;1.69;100.00
11085;BME280;5596;46.826;8.650;2023-03-16T03:06:18;96401.91;;;1.63;100.00
11085;BME280;5596;46.826;8.650;2023-03-16T03:08:44;96405.28;;;1.57;100.00
11085;BME280;5596;46.826;8.650;2023-03-16T03:11:12;96400.81;;;1.49;100.00
11085;BME280;5596;46.826;8.650;2023-03-16T03:13:38;96405.47;;;1.47;100.00
11085;BME280;5596;46.826;8.650;2023-03-16T03:16:12;96402.66;;;1.48;100.00
11085;BME280;5596;46.826;8.650;2023-03-16T03:18:40;96389.47;;;1.55;100.00
11085;BME280;5596;46.826;8.650;2023-03-16T03:21:06;96399.78;;;1.58;100.00
11085;BME280;5596;46.826;8.650;2023-03-16T03:23:35;96396.78;;;1.61;100.00
11085;BME280;5596;46.826;8.650;2023-03-16T03:26:02;96390.06;;;1.73;100.00
11085;BME280;5596;46.826;8.650;2023-03-16T03:28:30;96394.66;;;1.79;100.00
11085;BME280;5596;46.826;8.650;2023-03-16T03:30:58;96398.69;;;1.75;100.00
11085;BME280;5596;46.826;8.650;2023-03-16T03:33:25;96404.03;;;1.75;100.00
11085;BME280;5596;46.826;8.650;2023-03-16T03:35:52;96404.78;;;1.61;100.00
11085;BME280;5596;46.826;8.650;2023-03-16T03:38:20;96404.59;;;1.55;100.00
11085;BME280;5596;46.826;8.650;2023-03-16T03:40:49;96415.09;;;1.56;100.00
11085;BME280;5596;46.826;8.650;2023-03-16T03:43:16;96416.44;;;1.52;100.00
11085;BME280;5596;46.826;8.650;2023-03-16T03:45:44;96417.28;;;1.52;100.00
11085;BME280;5596;46.826;8.650;2023-03-16T03:48:12;96409.63;;;1.49;100.00
11085;BME280;5596;46.826;8.650;2023-03-16T03:50:38;96410.13;;;1.45;100.00
11085;BME280;5596;46.826;8.650;2023-03-16T03:53:37;96408.34;;;1.37;100.00
11085;BME280;5596;46.826;8.650;2023-03-16T03:56:35;96405.88;;;1.28;100.00
11085;BME280;5596;46.826;8.650;2023-03-16T03:59:08;96405.06;;;1.27;100.00
11085;BME280;5596;46.826;8.650;2023-03-16T04:01:58;96411.34;;;1.34;100.00
11085;BME280;5596;46.826;8.650;2023-03-16T04:04:37;96405.19;;;1.34;100.00
11085;BME280;5596;46.826;8.650;2023-03-16T04:07:04;96411.69;;;1.31;100.00
11085;BME280;5596;46.826;8.650;2023-03-16T04:09:31;96404.41;;;1.25;100.00
11085;BME280;5596;46.826;8.650;2023-03-16T04:12:00;96402.25;;;1.21;100.00
11085;BME280;5596;46.826;8.650;2023-03-16T04:14:27;96401.59;;;1.19;100.00
11085;BME280;5596;46.826;8.650;2023-03-16T04:16:54;96407.75;;;1.19;100.00
11085;BME280;5596;46.826;8.650;2023-03-16T04:19:21;96401.78;;;1.17;100.00
11085;BME280;5596;46.826;8.650;2023-03-16T04:21:50;96400.28;;;1.14;100.00
11085;BME280;5596;46.826;8.650;2023-03-16T04:24:18;96396.78;;;1.14;100.00
11085;BME280;5596;46.826;8.650;2023-03-16T04:26:47;96397.78;;;1.13;100.00
11085;BME280;5596;46.826;8.650;2023-03-16T04:29:15;96393.66;;;1.10;100.00
11085;BME280;5596;46.826;8.650;2023-03-16T04:31:43;96388.50;;;1.09;100.00
11085;BME280;5596;46.826;8.650;2023-03-16T04:34:11;96386.47;;;1.11;100.00
11085;BME280;5596;46.826;8.650;2023-03-16T04:36:38;96383.81;;;1.11;100.00
11085;BME280;5596;46.826;8.650;2023-03-16T04:39:06;96387.53;;;1.02;100.00
11085;BME280;5596;46.826;8.650;2023-03-16T04:41:33;96377.91;;;0.93;100.00
11085;BME280;5596;46.826;8.650;2023-03-16T04:44:10;96368.44;;;0.82;100.00
11085;BME280;5596;46.826;8.650;2023-03-16T04:46:39;96362.63;;;0.79;100.00
11085;BME280;5596;46.826;8.650;2023-03-16T04:49:08;96362.63;;;0.79;100.00
11085;BME280;5596;46.826;8.650;2023-03-16T04:51:36;96346.69;;;0.79;100.00
11085;BME280;5596;46.826;8.650;2023-03-16T04:54:11;96347.50;;;0.79;100.00
11085;BME280;5596;46.826;8.650;2023-03-16T04:56:42;96356.00;;;0.83;100.00
11085;BME280;5596;46.826;8.650;2023-03-16T04:59:17;96351.47;;;0.91;100.00
11085;BME280;5596;46.826;8.650;2023-03-16T05:01:52;96358.94;;;0.96;100.00
11085;BME280;5596;46.826;8.650;2023-03-16T05:04:19;96342.31;;;1.02;100.00
11085;BME280;5596;46.826;8.650;2023-03-16T05:06:49;96342.31;;;1.02;100.00
11085;BME280;5596;46.826;8.650;2023-03-16T05:09:19;96341.13;;;1.04;100.00
11085;BME280;5596;46.826;8.650;2023-03-16T05:11:50;96337.31;;;1.07;100.00
11085;BME280;5596;46.826;8.650;2023-03-16T05:14:17;96344.13;;;1.09;100.00
11085;BME280;5596;46.826;8.650;2023-03-16T05:17:02;96331.97;;;1.15;100.00
11085;BME280;5596;46.826;8.650;2023-03-16T05:19:29;96335.63;;;1.14;100.00
11085;BME280;5596;46.826;8.650;2023-03-16T05:21:56;96326.97;;;1.12;100.00
11085;BME280;5596;46.826;8.650;2023-03-16T05:24:23;96320.66;;;1.13;100.00
11085;BME280;5596;46.826;8.650;2023-03-16T05:26:49;96324.31;;;1.12;100.00
11085;BME280;5596;46.826;8.650;2023-03-16T05:29:19;96323.66;;;1.18;100.00
11085;BME280;5596;46.826;8.650;2023-03-16T05:31:45;96320.94;;;1.26;100.00
11085;BME280;5596;46.826;8.650;2023-03-16T05:34:16;96322.38;;;1.37;100.00
11085;BME280;5596;46.826;8.650;2023-03-16T05:36:43;96323.03;;;1.39;100.00
11085;BME280;5596;46.826;8.650;2023-03-16T05:39:14;96323.69;;;1.41;100.00
11085;BME280;5596;46.826;8.650;2023-03-16T05:41:44;96315.84;;;1.47;98.87
11085;BME280;5596;46.826;8.650;2023-03-16T05:44:43;96328.75;;;1.59;99.26
11085;BME280;5596;46.826;8.650;2023-03-16T05:47:18;96321.91;;;1.64;97.41
11085;BME280;5596;46.826;8.650;2023-03-16T05:49:51;96323.72;;;1.64;97.78
11085;BME280;5596;46.826;8.650;2023-03-16T05:52:28;96321.91;;;1.64;97.67
11085;BME280;5596;46.826;8.650;2023-03-16T05:54:57;96321.06;;;1.64;97.99
11085;BME280;5596;46.826;8.650;2023-03-16T05:57:24;96319.06;;;1.66;98.68
11085;BME280;5596;46.826;8.650;2023-03-16T05:59:51;96320.06;;;1.65;99.04
11085;BME280;5596;46.826;8.650;2023-03-16T06:02:19;96316.94;;;1.61;99.50
11085;BME280;5596;46.826;8.650;2023-03-16T06:04:46;96314.13;;;1.55;100.00
11085;BME280;5596;46.826;8.650;2023-03-16T06:07:14;96309.03;;;1.45;100.00
11085;BME280;5596;46.826;8.650;2023-03-16T06:09:42;96312.72;;;1.44;100.00
11085;BME280;5596;46.826;8.650;2023-03-16T06:12:13;96314.53;;;1.43;100.00
11085;BME280;5596;46.826;8.650;2023-03-16T06:14:40;96309.06;;;1.37;100.00
11085;BME280;5596;46.826;8.650;2023-03-16T06:17:07;96315.59;;;1.34;100.00
11085;BME280;5596;46.826;8.650;2023-03-16T06:19:35;96312.25;;;1.32;100.00
11085;BME280;5596;46.826;8.650;2023-03-16T06:22:01;96317.59;;;1.32;100.00
11085;BME280;5596;46.826;8.650;2023-03-16T06:24:30;96316.94;;;1.30;100.00
11085;BME280;5596;46.826;8.650;2023-03-16T06:26:57;96320.28;;;1.24;100.00
11085;BME280;5596;46.826;8.650;2023-03-16T06:29:30;96314.13;;;1.24;100.00
11085;BME280;5596;46.826;8.650;2023-03-16T06:31:59;96318.97;;;1.20;100.00
11085;BME280;5596;46.826;8.650;2023-03-16T06:34:26;96321.44;;;1.22;100.00
11085;BME280;5596;46.826;8.650;2023-03-16T06:36:54;96319.44;;;1.24;100.00
11085;BME280;5596;46.826;8.650;2023-03-16T06:39:21;96327.59;;;1.22;100.00
11085;BME280;5596;46.826;8.650;2023-03-16T06:41:51;96331.25;;;1.21;100.00
11085;BME280;5596;46.826;8.650;2023-03-16T06:44:18;96335.94;;;1.19;100.00
11085;BME280;5596;46.826;8.650;2023-03-16T06:46:55;96331.97;;;1.15;100.00
11085;BME280;5596;46.826;8.650;2023-03-16T06:49:22;96348.63;;;1.01;100.00
11085;BME280;5596;46.826;8.650;2023-03-16T06:51:49;96348.25;;;1.12;100.00
11085;BME280;5596;46.826;8.650;2023-03-16T06:54:17;96351.91;;;1.11;100.00
11085;BME280;5596;46.826;8.650;2023-03-16T06:56:44;96363.38;;;1.11;100.00
11085;BME280;5596;46.826;8.650;2023-03-16T06:59:12;96360.91;;;1.10;100.00
11085;BME280;5596;46.826;8.650;2023-03-16T07:01:39;96365.09;;;0.96;100.00
11085;BME280;5596;46.826;8.650;2023-03-16T07:04:07;96363.09;;;0.98;100.00
11085;BME280;5596;46.826;8.650;2023-03-16T07:06:34;96362.75;;;1.01;100.00
11085;BME280;5596;46.826;8.650;2023-03-16T07:09:01;96371.22;;;1.05;100.00
11085;BME280;5596;46.826;8.650;2023-03-16T07:11:29;96371.19;;;1.13;100.00
11085;BME280;5596;46.826;8.650;2023-03-16T07:13:56;96367.19;;;1.17;100.00
11085;BME280;5596;46.826;8.650;2023-03-16T07:16:26;96375.34;;;1.16;100.00
11085;BME280;5596;46.826;8.650;2023-03-16T07:18:55;96375.16;;;1.17;100.00
11085;BME280;5596;46.826;8.650;2023-03-16T07:21:23;96381.97;;;1.20;100.00
11085;BME280;5596;46.826;8.650;2023-03-16T07:23:50;96385.66;;;1.19;100.00
11085;BME280;5596;46.826;8.650;2023-03-16T07:30:14;96399.41;;;1.22;100.00
11085;BME280;5596;46.826;8.650;2023-03-16T07:32:44;96405.56;;;1.23;100.00
11085;BME280;5596;46.826;8.650;2023-03-16T07:35:11;96406.06;;;1.26;100.00
11085;BME280;5596;46.826;8.650;2023-03-16T07:37:38;96410.38;;;1.27;100.00
11085;BME280;5596;46.826;8.650;2023-03-16T07:40:06;96410.84;;;1.31;100.00
11085;BME280;5596;46.826;8.650;2023-03-16T07:42:34;96410.38;;;1.27;100.00
11085;BME280;5596;46.826;8.650;2023-03-16T07:45:09;96423.31;;;1.30;100.00
11085;BME280;5596;46.826;8.650;2023-03-16T07:47:38;96422.16;;;1.33;100.00
11085;BME280;5596;46.826;8.650;2023-03-16T07:50:12;96430.16;;;1.25;100.00
11085;BME280;5596;46.826;8.650;2023-03-16T07:52:42;96430.63;;;1.28;100.00
11085;BME280;5596;46.826;8.650;2023-03-16T07:55:10;96428.31;;;1.33;100.00
11085;BME280;5596;46.826;8.650;2023-03-16T07:57:38;96441.59;;;1.41;100.00
11085;BME280;5596;46.826;8.650;2023-03-16T08:00:07;96430.09;;;1.49;100.00
11085;BME280;5596;46.826;8.650;2023-03-16T08:02:43;96424.22;;;1.53;100.00
11085;BME280;5596;46.826;8.650;2023-03-16T08:05:12;96429.06;;;1.58;100.00
11085;BME280;5596;46.826;8.650;2023-03-16T08:07:44;96434.03;;;1.61;100.00
11085;BME280;5596;46.826;8.650;2023-03-16T08:10:14;96437.22;;;1.57;100.00
11085;BME280;5596;46.826;8.650;2023-03-16T08:12:53;96430.72;;;1.59;100.00
11085;BME280;5596;46.826;8.650;2023-03-16T08:15:20;96428.09;;;1.51;100.00
11085;BME280;5596;46.826;8.650;2023-03-16T08:17:51;96434.25;;;1.51;100.00
11085;BME280;5596;46.826;8.650;2023-03-16T08:20:22;96425.25;;;1.52;100.00
11085;BME280;5596;46.826;8.650;2023-03-16T08:22:49;96421.06;;;1.58;100.00
11085;BME280;5596;46.826;8.650;2023-03-16T08:25:20;96421.53;;;1.62;100.00
11085;BME280;5596;46.826;8.650;2023-03-16T08:27:57;96412.88;;;1.68;100.00
11085;BME280;5596;46.826;8.650;2023-03-16T08:30:24;96402.19;;;1.76;100.00
11085;BME280;5596;46.826;8.650;2023-03-16T08:33:08;96389.97;;;1.89;100.00
11085;BME280;5596;46.826;8.650;2023-03-16T08:35:35;96383.47;;;2.15;100.00
11085;BME280;5596;46.826;8.650;2023-03-16T08:38:03;96382.78;;;2.44;98.11
11085;BME280;5596;46.826;8.650;2023-03-16T08:40:30;96372.91;;;2.67;97.94
11085;BME280;5596;46.826;8.650;2023-03-16T08:42:59;96371.66;;;2.92;95.23
11085;BME280;5596;46.826;8.650;2023-03-16T08:45:27;96360.75;;;3.31;91.23
11085;BME280;5596;46.826;8.650;2023-03-16T08:47:53;96351.06;;;3.45;90.90
11085;BME280;5596;46.826;8.650;2023-03-16T08:50:22;96337.38;;;3.69;87.11
11085;BME280;5596;46.826;8.650;2023-03-16T08:52:49;96342.56;;;3.92;80.54
11085;BME280;5596;46.826;8.650;2023-03-16T08:55:15;96333.56;;;4.14;80.47
11085;BME280;5596;46.826;8.650;2023-03-16T08:57:42;96336.09;;;4.44;78.41
11085;BME280;5596;46.826;8.650;2023-03-16T09:00:11;96330.31;;;4.68;73.81
11085;BME280;5596;46.826;8.650;2023-03-16T09:02:39;96323.94;;;4.97;70.77
11085;BME280;5596;46.826;8.650;2023-03-16T09:05:07;96304.53;;;5.16;67.55
11085;BME280;5596;46.826;8.650;2023-03-16T09:07:35;96297.22;;;5.38;67.12
11085;BME280;5596;46.826;8.650;2023-03-16T09:10:04;96292.78;;;5.65;65.90
11085;BME280;5596;46.826;8.650;2023-03-16T09:12:33;96307.31;;;5.90;64.64
11085;BME280;5596;46.826;8.650;2023-03-16T09:15:00;96293.78;;;6.12;62.91
11085;BME280;5596;46.826;8.650;2023-03-16T09:17:27;96294.63;;;6.25;62.02
11085;BME280;5596;46.826;8.650;2023-03-16T09:19:53;96287.41;;;6.45;60.47
11085;BME280;5596;46.826;8.650;2023-03-16T09:22:21;96276.69;;;6.59;59.91
11085;BME280;5596;46.826;8.650;2023-03-16T09:24:50;96275.63;;;6.66;56.34
11085;BME280;5596;46.826;8.650;2023-03-16T09:27:17;96273.38;;;6.76;53.51
11085;BME280;5596;46.826;8.650;2023-03-16T09:29:45;96263.41;;;6.90;52.14
11085;BME280;5596;46.826;8.650;2023-03-16T09:32:11;96263.63;;;7.02;49.62
11085;BME280;5596;46.826;8.650;2023-03-16T09:34:39;96252.47;;;7.05;49.87
11085;BME280;5596;46.826;8.650;2023-03-16T09:37:06;96247.66;;;7.20;50.41
11085;BME280;5596;46.826;8.650;2023-03-16T09:39:33;96250.06;;;7.41;50.75
11085;BME280;5596;46.826;8.650;2023-03-16T09:42:03;96246.00;;;7.70;50.75
11085;BME280;5596;46.826;8.650;2023-03-16T09:44:36;96242.31;;;8.03;51.17
11085;BME280;5596;46.826;8.650;2023-03-16T09:47:08;96245.25;;;8.32;49.08
11085;BME280;5596;46.826;8.650;2023-03-16T09:49:36;96241.44;;;8.65;49.05
11085;BME280;5596;46.826;8.650;2023-03-16T09:52:08;96247.34;;;8.98;49.51
11085;BME280;5596;46.826;8.650;2023-03-16T09:54:39;96243.16;;;9.21;46.79
11085;BME280;5596;46.826;8.650;2023-03-16T09:57:13;96240.47;;;9.39;44.84
11085;BME280;5596;46.826;8.650;2023-03-16T09:59:42;96239.56;;;9.45;42.57
11085;BME280;5596;46.826;8.650;2023-03-16T10:02:17;96234.63;;;9.60;43.93
11085;BME280;5596;46.826;8.650;2023-03-16T10:04:53;96235.19;;;9.62;43.18
11085;BME280;5596;46.826;8.650;2023-03-16T10:07:24;96225.63;;;9.48;43.99
11085;BME280;5596;46.826;8.650;2023-03-16T10:09:56;96225.72;;;9.60;43.04
11085;BME280;5596;46.826;8.650;2023-03-16T10:12:27;96232.66;;;9.67;41.78
11085;BME280;5596;46.826;8.650;2023-03-16T10:14:55;96237.25;;;9.78;41.52
11085;BME280;5596;46.826;8.650;2023-03-16T10:17:25;96225.44;;;9.79;41.60
11085;BME280;5596;46.826;8.650;2023-03-16T10:19:55;96217.59;;;9.78;42.05
11085;BME280;5596;46.826;8.650;2023-03-16T10:22:23;96219.38;;;9.84;42.90
11085;BME280;5596;46.826;8.650;2023-03-16T10:24:56;96216.75;;;10.07;43.22
11085;BME280;5596;46.826;8.650;2023-03-16T10:27:27;96202.84;;;10.22;42.98
11085;BME280;5596;46.826;8.650;2023-03-16T10:29:54;96203.47;;;10.47;43.36
11085;BME280;5596;46.826;8.650;2023-03-16T10:32:21;96202.66;;;10.58;43.32
11085;BME280;5596;46.826;8.650;2023-03-16T10:34:53;96196.22;;;10.83;43.87
11085;BME280;5596;46.826;8.650;2023-03-16T10:37:20;96200.34;;;10.97;42.79
11085;BME280;5596;46.826;8.650;2023-03-16T10:39:47;96199.03;;;11.11;45.31
11085;BME280;5596;46.826;8.650;2023-03-16T10:42:14;96190.31;;;11.21;47.47
11085;BME280;5596;46.826;8.650;2023-03-16T10:44:43;96193.25;;;11.31;45.98
11085;BME280;5596;46.826;8.650;2023-03-16T10:47:18;96192.53;;;11.24;46.14
11085;BME280;5596;46.826;8.650;2023-03-16T10:49:47;96192.28;;;11.25;46.34
11085;BME280;5596;46.826;8.650;2023-03-16T10:52:17;96198.16;;;11.34;46.05
11085;BME280;5596;46.826;8.650;2023-03-16T10:54:49;96199.41;;;11.55;45.54
11085;BME280;5596;46.826;8.650;2023-03-16T10:57:21;96194.53;;;11.80;45.97
11085;BME280;5596;46.826;8.650;2023-03-16T10:59:51;96192.56;;;11.92;44.93
11085;BME280;5596;46.826;8.650;2023-03-16T11:02:19;96196.72;;;12.11;43.34
11085;BME280;5596;46.826;8.650;2023-03-16T11:04:48;96195.81;;;12.06;43.50
11085;BME280;5596;46.826;8.650;2023-03-16T11:07:15;96187.16;;;11.92;43.08
11085;BME280;5596;46.826;8.650;2023-03-16T11:09:43;96182.75;;;12.03;43.65
11085;BME280;5596;46.826;8.650;2023-03-16T11:12:13;96186.75;;;12.00;42.79
11085;BME280;5596;46.826;8.650;2023-03-16T11:14:41;96183.44;;;12.27;41.60
11085;BME280;5596;46.826;8.650;2023-03-16T11:17:11;96180.97;;;12.25;41.45
11085;BME280;5596;46.826;8.650;2023-03-16T11:19:40;96185.09;;;12.28;40.02
11085;BME280;5596;46.826;8.650;2023-03-16T11:22:12;96182.97;;;12.30;40.77
11085;BME280;5596;46.826;8.650;2023-03-16T11:24:43;96183.44;;;12.27;41.57
11085;BME280;5596;46.826;8.650;2023-03-16T11:27:15;96191.09;;;12.46;40.66
11085;BME280;5596;46.826;8.650;2023-03-16T11:29:47;96185.59;;;12.75;41.06
11085;BME280;5596;46.826;8.650;2023-03-16T11:32:18;96179.97;;;12.98;40.82
11085;BME280;5596;46.826;8.650;2023-03-16T11:34:46;96179.50;;;12.84;40.44
11085;BME280;5596;46.826;8.650;2023-03-16T11:37:15;96179.34;;;12.74;39.54
11085;BME280;5596;46.826;8.650;2023-03-16T11:39:48;96178.56;;;12.96;39.26
11085;BME280;5596;46.826;8.650;2023-03-16T11:42:28;96172.47;;;13.05;39.35
11085;BME280;5596;46.826;8.650;2023-03-16T11:44:58;96174.19;;;13.11;39.36
11085;BME280;5596;46.826;8.650;2023-03-16T11:47:31;96164.16;;;13.29;38.64
11085;BME280;5596;46.826;8.650;2023-03-16T11:50:04;96161.50;;;13.34;38.14
11085;BME280;5596;46.826;8.650;2023-03-16T11:52:34;96166.13;;;13.33;38.21
11085;BME280;5596;46.826;8.650;2023-03-16T11:55:16;96161.13;;;13.25;37.09
11085;BME280;5596;46.826;8.650;2023-03-16T11:57:48;96161.88;;;13.04;39.42
11085;BME280;5596;46.826;8.650;2023-03-16T12:00:21;96165.16;;;13.06;39.68
11085;BME280;5596;46.826;8.650;2023-03-16T12:02:55;96159.75;;;13.22;37.41
11085;BME280;5596;46.826;8.650;2023-03-16T12:05:36;96158.22;;;13.53;37.74
11085;BME280;5596;46.826;8.650;2023-03-16T12:08:13;96152.47;;;13.28;37.38
11085;BME280;5596;46.826;8.650;2023-03-16T12:10:44;96155.75;;;13.74;37.48
11085;BME280;5596;46.826;8.650;2023-03-16T12:13:17;96149.91;;;13.87;36.92
11085;BME280;5596;46.826;8.650;2023-03-16T12:15:57;96151.47;;;13.78;37.32
11085;BME280;5596;46.826;8.650;2023-03-16T12:18:29;96148.22;;;13.81;37.04
11085;BME280;5596;46.826;8.650;2023-03-16T12:21:00;96147.66;;;13.79;36.62
11085;BME280;5596;46.826;8.650;2023-03-16T12:23:29;96145.00;;;13.84;36.96
11085;BME280;5596;46.826;8.650;2023-03-16T12:25:59;96148.66;;;13.94;36.85
11085;BME280;5596;46.826;8.650;2023-03-16T12:28:26;96139.47;;;14.00;35.76
11085;BME280;5596;46.826;8.650;2023-03-16T12:30:59;96140.75;;;14.20;36.83
11085;BME280;5596;46.826;8.650;2023-03-16T12:33:34;96138.91;;;13.98;36.35
11085;BME280;5596;46.826;8.650;2023-03-16T12:36:10;96133.59;;;14.14;36.54
11085;BME280;5596;46.826;8.650;2023-03-16T12:38:45;96133.91;;;14.17;36.94
11085;BME280;5596;46.826;8.650;2023-03-16T12:41:18;96134.41;;;14.09;37.32
11085;BME280;5596;46.826;8.650;2023-03-16T12:43:51;96134.69;;;14.13;37.73
11085;BME280;5596;46.826;8.650;2023-03-16T12:46:23;96140.91;;;14.08;39.11
11085;BME280;5596;46.826;8.650;2023-03-16T12:48:54;96143.03;;;14.06;39.14
11085;BME280;5596;46.826;8.650;2023-03-16T12:51:31;96140.28;;;14.01;39.40
11085;BME280;5596;46.826;8.650;2023-03-16T12:53:58;96134.97;;;14.11;37.77
11085;BME280;5596;46.826;8.650;2023-03-16T12:56:26;96125.81;;;14.22;38.29
11085;BME280;5596;46.826;8.650;2023-03-16T12:58:55;96133.84;;;14.39;39.08
11085;BME280;5596;46.826;8.650;2023-03-16T13:01:24;96127.94;;;14.47;37.59
11085;BME280;5596;46.826;8.650;2023-03-16T13:03:59;96122.22;;;14.44;37.21
11085;BME280;5596;46.826;8.650;2023-03-16T13:06:30;96121.44;;;14.48;37.38
11085;BME280;5596;46.826;8.650;2023-03-16T13:08:57;96126.09;;;14.53;37.05
11085;BME280;5596;46.826;8.650;2023-03-16T13:11:25;96125.56;;;14.56;37.15
11085;BME280;5596;46.826;8.650;2023-03-16T13:14:03;96128.00;;;14.52;37.96
11085;BME280;5596;46.826;8.650;2023-03-16T13:16:33;96121.00;;;14.61;38.14
11085;BME280;5596;46.826;8.650;2023-03-16T13:19:16;96125.28;;;14.52;37.70
11085;BME280;5596;46.826;8.650;2023-03-16T13:21:43;96128.34;;;14.61;36.45
11085;BME280;5596;46.826;8.650;2023-03-16T13:24:19;96118.72;;;14.48;36.97
11085;BME280;5596;46.826;8.650;2023-03-16T13:26:52;96118.00;;;14.31;36.67
11085;BME280;5596;46.826;8.650;2023-03-16T13:29:20;96117.31;;;14.41;36.90
11085;BME280;5596;46.826;8.650;2023-03-16T13:31:48;96122.50;;;14.47;37.55